Terminal Aerodrome Forecast
Issued by NWS

Home | Current Version | Previous Version | Text Only | Print | Product List | Glossary On
Versions: 1 2 3 4 5 6 7 8 9 10 11 12 13 14 15 16 17 18 19 20 21 22 23 24 25 26
000
FTUS43 KLSX 190500
TAFSUS
TAF
KSUS 190520Z 1906/2006 VRB03KT 3SM BR SCT250
      TEMPO 1908/1912 1SM BR
     FM191200 VRB04KT 5SM BR BKN120
     FM191500 22009KT P6SM SCT030 BKN120
     FM192100 24010KT P6SM SCT040 BKN250
     FM200100 VRB04KT P6SM SCT120 BKN250=

USA.gov is the U.S. government's official web portal to all federal, state and local government web resources and services.